createdAt,value
2018-07-11T00:00:43.419Z,4.00
2018-07-11T00:01:43.404Z,4.00
2018-07-11T00:02:43.390Z,4.00
2018-07-11T00:03:43.374Z,4.00
2018-07-11T00:04:43.361Z,4.00
2018-07-11T00:05:43.344Z,4.00
2018-07-11T00:06:43.328Z,4.00
2018-07-11T00:07:43.313Z,4.00
2018-07-11T00:08:43.298Z,4.00
2018-07-11T00:09:43.284Z,4.00
2018-07-11T00:10:43.281Z,4.00
2018-07-11T00:11:43.261Z,4.00
2018-07-11T00:12:43.239Z,4.00
2018-07-11T00:13:43.224Z,4.00
2018-07-11T00:14:43.211Z,4.00
2018-07-11T00:15:43.195Z,4.00
2018-07-11T00:16:43.181Z,4.00
2018-07-11T00:17:43.167Z,4.00
2018-07-11T00:18:43.150Z,4.00
2018-07-11T00:19:43.135Z,4.00
2018-07-11T00:20:43.123Z,4.00
2018-07-11T00:21:43.106Z,4.00
2018-07-11T00:22:43.090Z,4.00
2018-07-11T00:23:43.082Z,4.00
2018-07-11T00:24:43.060Z,8.00
2018-07-11T00:25:43.051Z,8.00
2018-07-11T00:26:43.032Z,8.00
2018-07-11T00:27:43.016Z,8.00
2018-07-11T00:28:43.001Z,8.00
2018-07-11T00:29:42.985Z,8.00
2018-07-11T00:30:42.971Z,8.00
2018-07-11T00:31:42.956Z,8.00
2018-07-11T00:32:42.940Z,8.00
2018-07-11T00:33:42.927Z,8.00
2018-07-11T00:34:42.911Z,8.00
2018-07-11T00:35:42.900Z,8.00
2018-07-11T00:36:42.881Z,8.00
2018-07-11T00:37:42.867Z,8.00
2018-07-11T00:38:42.851Z,8.00
2018-07-11T00:39:42.841Z,8.00
2018-07-11T00:40:42.824Z,8.00
2018-07-11T00:41:42.806Z,8.00
2018-07-11T00:42:42.791Z,8.00
2018-07-11T00:43:42.976Z,8.00
2018-07-11T00:44:42.761Z,8.00
2018-07-11T00:45:42.749Z,8.00
2018-07-11T00:46:42.731Z,8.00
2018-07-11T00:47:42.715Z,8.00
2018-07-11T00:48:42.704Z,8.00
2018-07-11T00:49:42.691Z,8.00
2018-07-11T00:50:42.675Z,8.00
2018-07-11T00:51:42.656Z,8.00
2018-07-11T00:52:42.641Z,8.00
2018-07-11T00:53:42.625Z,8.00
2018-07-11T00:54:42.612Z,8.00
2018-07-11T00:55:42.597Z,8.00
2018-07-11T00:56:42.585Z,8.00
2018-07-11T00:57:42.573Z,8.00
2018-07-11T00:58:42.551Z,8.00
2018-07-11T00:59:42.535Z,8.00
2018-07-11T01:00:42.561Z,8.00
2018-07-11T01:01:42.506Z,8.00
2018-07-11T01:02:42.490Z,8.00
2018-07-11T01:03:42.475Z,8.00
2018-07-11T01:04:42.462Z,8.00
2018-07-11T01:05:42.450Z,8.00
2018-07-11T01:06:42.431Z,8.00
2018-07-11T01:07:42.417Z,8.00
2018-07-11T01:08:42.401Z,8.00
2018-07-11T01:09:42.385Z,8.00
2018-07-11T01:10:42.380Z,8.00
2018-07-11T01:11:42.356Z,8.00
2018-07-11T01:12:42.353Z,8.00
2018-07-11T01:13:42.326Z,8.00
2018-07-11T01:14:42.324Z,8.00
2018-07-11T01:15:42.297Z,8.00
2018-07-11T01:16:42.282Z,8.00
2018-07-11T01:17:42.267Z,8.00
2018-07-11T01:18:42.253Z,8.00
2018-07-11T01:19:42.240Z,8.00
2018-07-11T01:20:42.224Z,8.00
2018-07-11T01:21:42.212Z,8.00
2018-07-11T01:22:42.192Z,8.00
2018-07-11T01:23:42.176Z,8.00
2018-07-11T01:24:42.166Z,8.00
2018-07-11T01:25:42.149Z,8.00
2018-07-11T01:26:42.131Z,8.00
2018-07-11T01:27:42.121Z,8.00
2018-07-11T01:28:42.111Z,8.00
2018-07-11T01:29:42.095Z,8.00
2018-07-11T01:30:42.074Z,8.00
2018-07-11T01:31:42.058Z,8.00
2018-07-11T01:32:42.047Z,8.00
2018-07-11T01:33:42.028Z,4.00
2018-07-11T01:34:42.012Z,8.00
2018-07-11T01:35:42.001Z,8.00
2018-07-11T01:36:41.988Z,8.00
2018-07-11T01:37:41.965Z,8.00
2018-07-11T01:38:41.952Z,8.00
2018-07-11T01:39:41.936Z,8.00
2018-07-11T01:40:41.920Z,8.00
2018-07-11T01:41:41.910Z,8.00
2018-07-11T01:42:41.894Z,8.00
2018-07-11T01:43:41.877Z,8.00
2018-07-11T01:44:41.859Z,8.00
2018-07-11T01:45:41.850Z,4.00
2018-07-11T01:46:41.833Z,8.00
2018-07-11T01:47:41.813Z,8.00
2018-07-11T01:48:41.799Z,8.00
2018-07-11T01:49:41.783Z,8.00
2018-07-11T01:50:41.769Z,8.00
2018-07-11T01:51:41.758Z,8.00
2018-07-11T01:52:41.739Z,8.00
2018-07-11T01:53:41.725Z,8.00
2018-07-11T01:54:41.707Z,8.00
2018-07-11T01:55:41.697Z,4.00
2018-07-11T01:56:41.683Z,8.00
2018-07-11T01:57:41.661Z,4.00
2018-07-11T01:58:41.655Z,8.00
2018-07-11T01:59:41.632Z,8.00
2018-07-11T02:00:41.619Z,4.00
2018-07-11T02:01:41.603Z,8.00
2018-07-11T02:02:41.585Z,8.00
2018-07-11T02:03:41.577Z,8.00
2018-07-11T02:04:41.555Z,8.00
2018-07-11T02:05:41.541Z,8.00
2018-07-11T02:06:41.525Z,8.00
2018-07-11T02:07:41.510Z,8.00
2018-07-11T02:08:41.495Z,8.00
2018-07-11T02:09:41.480Z,8.00
2018-07-11T02:10:41.463Z,8.00
2018-07-11T02:11:41.447Z,8.00
2018-07-11T02:12:41.440Z,8.00
2018-07-11T02:13:41.567Z,8.00
2018-07-11T02:14:41.401Z,4.00
2018-07-11T02:15:41.393Z,4.00
2018-07-11T02:16:41.372Z,8.00
2018-07-11T02:17:41.356Z,4.00
2018-07-11T02:18:41.342Z,4.00
2018-07-11T02:19:41.326Z,4.00
2018-07-11T02:20:41.310Z,4.00
2018-07-11T02:21:41.296Z,4.00
2018-07-11T02:22:41.279Z,4.00
2018-07-11T02:23:41.269Z,4.00
2018-07-11T02:24:41.253Z,4.00
2018-07-11T02:25:41.242Z,4.00
2018-07-11T02:26:41.219Z,4.00
2018-07-11T02:27:41.203Z,4.00
2018-07-11T02:28:41.192Z,4.00
2018-07-11T02:29:41.170Z,4.00
2018-07-11T02:30:41.157Z,4.00
2018-07-11T02:31:41.140Z,4.00
2018-07-11T02:32:41.124Z,4.00
2018-07-11T02:33:41.113Z,4.00
2018-07-11T02:34:41.095Z,4.00
2018-07-11T02:35:41.078Z,4.00
2018-07-11T02:36:41.068Z,4.00
2018-07-11T02:37:41.054Z,4.00
2018-07-11T02:38:41.034Z,4.00
2018-07-11T02:39:41.017Z,4.00
2018-07-11T02:40:41.001Z,4.00
2018-07-11T02:41:40.984Z,4.00
2018-07-11T02:42:40.980Z,4.00
2018-07-11T02:43:40.955Z,4.00
2018-07-11T02:44:40.944Z,4.00
2018-07-11T02:45:40.924Z,4.00
2018-07-11T02:46:40.911Z,4.00
2018-07-11T02:47:40.895Z,4.00
2018-07-11T02:48:40.877Z,4.00
2018-07-11T02:49:40.863Z,4.00
2018-07-11T02:50:40.855Z,4.00
2018-07-11T02:51:40.837Z,4.00
2018-07-11T02:52:40.815Z,4.00
2018-07-11T02:53:40.799Z,4.00
2018-07-11T02:54:40.787Z,4.00
2018-07-11T02:55:40.768Z,4.00
2018-07-11T02:56:40.752Z,4.00
2018-07-11T02:57:40.738Z,4.00
2018-07-11T02:58:40.722Z,4.00
2018-07-11T02:59:40.716Z,4.00
2018-07-11T03:00:40.693Z,4.00
2018-07-11T03:01:40.677Z,4.00
2018-07-11T03:02:40.668Z,4.00
2018-07-11T03:03:40.645Z,4.00
2018-07-11T03:04:40.635Z,4.00
2018-07-11T03:05:40.617Z,4.00
2018-07-11T03:06:40.599Z,4.00
2018-07-11T03:07:40.585Z,4.00
2018-07-11T03:08:40.570Z,4.00
2018-07-11T03:09:40.555Z,4.00
2018-07-11T03:10:40.540Z,4.00
2018-07-11T03:11:40.524Z,4.00
2018-07-11T03:12:40.508Z,4.00
2018-07-11T03:13:40.494Z,4.00
2018-07-11T03:14:40.476Z,4.00
2018-07-11T03:15:40.470Z,4.00
2018-07-11T03:16:40.450Z,4.00
2018-07-11T03:17:40.438Z,4.00
2018-07-11T03:18:40.416Z,4.00
2018-07-11T03:19:40.400Z,4.00
2018-07-11T03:20:40.385Z,4.00
2018-07-11T03:21:40.375Z,4.00
2018-07-11T03:22:40.354Z,4.00
2018-07-11T03:23:40.345Z,4.00
2018-07-11T03:24:40.324Z,4.00
2018-07-11T03:25:40.309Z,4.00
2018-07-11T03:26:40.298Z,4.00
2018-07-11T03:27:40.279Z,4.00
2018-07-11T03:28:40.262Z,4.00
2018-07-11T03:29:40.250Z,4.00
2018-07-11T03:30:40.236Z,4.00
2018-07-11T03:31:40.217Z,4.00
2018-07-11T03:32:40.233Z,4.00
2018-07-11T03:33:40.190Z,4.00
2018-07-11T03:34:40.175Z,4.00
2018-07-11T03:35:40.161Z,4.00
2018-07-11T03:36:40.141Z,4.00
2018-07-11T03:37:40.127Z,4.00
2018-07-11T03:38:40.113Z,4.00
2018-07-11T03:39:40.096Z,4.00
2018-07-11T03:40:40.082Z,4.00
2018-07-11T03:41:40.069Z,4.00
2018-07-11T03:42:40.053Z,4.00
2018-07-11T03:43:40.038Z,4.00
2018-07-11T03:44:40.023Z,4.00
2018-07-11T03:45:40.006Z,4.00
2018-07-11T03:46:39.990Z,4.00
2018-07-11T03:47:39.975Z,4.00
2018-07-11T03:48:39.961Z,4.00
2018-07-11T03:49:39.947Z,4.00
2018-07-11T03:50:39.933Z,4.00
2018-07-11T03:51:39.914Z,4.00
2018-07-11T03:52:39.900Z,4.00
2018-07-11T03:53:39.921Z,4.00
2018-07-11T03:54:39.869Z,4.00
2018-07-11T03:55:39.855Z,4.00
2018-07-11T03:56:39.839Z,4.00
2018-07-11T03:57:39.825Z,4.00
2018-07-11T03:58:39.809Z,4.00
2018-07-11T03:59:39.794Z,4.00
2018-07-11T04:00:39.778Z,4.00
2018-07-11T04:01:39.764Z,4.00
2018-07-11T04:02:39.750Z,4.00
2018-07-11T04:03:39.733Z,4.00
2018-07-11T04:04:39.721Z,4.00
2018-07-11T04:05:39.704Z,4.00
2018-07-11T04:06:39.690Z,4.00
2018-07-11T04:07:39.672Z,4.00
2018-07-11T04:08:39.657Z,4.00
2018-07-11T04:09:39.641Z,4.00
2018-07-11T04:10:39.630Z,4.00
2018-07-11T04:11:39.611Z,4.00
2018-07-11T04:12:39.597Z,4.00
2018-07-11T04:13:39.581Z,4.00
2018-07-11T04:14:39.569Z,4.00
2018-07-11T04:15:39.552Z,4.00
2018-07-11T04:16:39.536Z,4.00
2018-07-11T04:17:39.522Z,4.00
2018-07-11T04:18:39.506Z,4.00
2018-07-11T04:19:39.493Z,4.00
2018-07-11T04:20:39.476Z,4.00
2018-07-11T04:21:39.460Z,4.00
2018-07-11T04:22:39.445Z,4.00
2018-07-11T04:23:39.429Z,4.00
2018-07-11T04:24:39.413Z,4.00
2018-07-11T04:25:39.399Z,4.00
2018-07-11T04:26:39.383Z,4.00
2018-07-11T04:27:39.367Z,4.00
2018-07-11T04:28:39.409Z,4.00
2018-07-11T04:29:39.337Z,4.00
2018-07-11T04:30:39.323Z,4.00
2018-07-11T04:31:39.310Z,4.00
2018-07-11T04:32:39.291Z,4.00
2018-07-11T04:33:39.277Z,4.00
2018-07-11T04:34:39.310Z,4.00
2018-07-11T04:35:39.245Z,4.00
2018-07-11T04:36:39.231Z,4.00
2018-07-11T04:37:39.215Z,4.00
2018-07-11T04:38:39.200Z,4.00
2018-07-11T04:39:39.184Z,4.00
2018-07-11T04:40:39.173Z,4.00
2018-07-11T04:41:39.154Z,4.00
2018-07-11T04:42:39.215Z,4.00
2018-07-11T04:43:39.124Z,4.00
2018-07-11T04:44:39.108Z,4.00
2018-07-11T04:45:39.096Z,4.00
2018-07-11T04:46:39.084Z,4.00
2018-07-11T04:47:39.062Z,4.00
2018-07-11T04:48:39.047Z,4.00
2018-07-11T04:49:39.233Z,4.00
2018-07-11T04:50:39.017Z,4.00
2018-07-11T04:51:39.001Z,4.00
2018-07-11T04:52:38.996Z,4.00
2018-07-11T04:53:38.973Z,4.00
2018-07-11T04:54:38.956Z,4.00
2018-07-11T04:55:38.941Z,4.00
2018-07-11T04:56:38.927Z,4.00
2018-07-11T04:57:38.910Z,4.00
2018-07-11T04:58:38.895Z,4.00
2018-07-11T04:59:38.881Z,4.00
2018-07-11T05:00:38.864Z,4.00
2018-07-11T05:01:38.850Z,4.00
2018-07-11T05:02:38.835Z,4.00
2018-07-11T05:03:38.819Z,4.00
2018-07-11T05:04:38.865Z,4.00
2018-07-11T05:05:38.790Z,4.00
2018-07-11T05:06:38.774Z,4.00
2018-07-11T05:07:38.757Z,4.00
2018-07-11T05:08:38.743Z,4.00
2018-07-11T05:09:38.727Z,4.00
2018-07-11T05:10:38.713Z,4.00
2018-07-11T05:11:38.698Z,4.00
2018-07-11T05:12:38.684Z,4.00
2018-07-11T05:13:38.818Z,4.00
2018-07-11T05:14:38.652Z,4.00
2018-07-11T05:15:38.636Z,4.00
2018-07-11T05:16:38.621Z,4.00
2018-07-11T05:17:38.607Z,4.00
2018-07-11T05:18:38.592Z,4.00
2018-07-11T05:19:38.574Z,4.00
2018-07-11T05:20:38.561Z,4.00
2018-07-11T05:21:38.544Z,4.00
2018-07-11T05:22:38.529Z,4.00
2018-07-11T05:23:38.514Z,4.00
2018-07-11T05:24:38.498Z,4.00
2018-07-11T05:25:38.485Z,4.00
2018-07-11T05:26:38.470Z,4.00
2018-07-11T05:27:38.490Z,4.00
2018-07-11T05:28:38.436Z,4.00
2018-07-11T05:29:38.423Z,4.00
2018-07-11T05:30:38.409Z,4.00
2018-07-11T05:31:38.390Z,4.00
2018-07-11T05:32:38.376Z,4.00
2018-07-11T05:33:38.362Z,4.00
2018-07-11T05:34:38.350Z,4.00
2018-07-11T05:35:38.328Z,4.00
2018-07-11T05:36:38.314Z,4.00
2018-07-11T05:37:38.298Z,4.00
2018-07-11T05:38:38.287Z,4.00
2018-07-11T05:39:38.267Z,4.00
2018-07-11T05:40:38.254Z,4.00
2018-07-11T05:41:38.239Z,4.00
2018-07-11T05:42:38.222Z,4.00
2018-07-11T05:43:38.206Z,4.00
2018-07-11T05:44:38.191Z,4.00
2018-07-11T05:45:38.177Z,4.00
2018-07-11T05:46:38.161Z,4.00
2018-07-11T05:47:38.144Z,4.00
2018-07-11T05:48:38.130Z,4.00
2018-07-11T05:49:38.117Z,4.00
2018-07-11T05:50:38.099Z,4.00
2018-07-11T05:51:38.083Z,4.00
2018-07-11T05:52:38.068Z,4.00
2018-07-11T05:53:38.053Z,4.00
2018-07-11T05:54:38.047Z,4.00
2018-07-11T05:55:38.083Z,4.00
2018-07-11T05:56:38.007Z,4.00
2018-07-11T05:57:37.993Z,4.00
2018-07-11T05:58:37.976Z,4.00
2018-07-11T05:59:37.960Z,4.00
2018-07-11T06:00:37.948Z,4.00
2018-07-11T06:01:37.931Z,4.00
2018-07-11T06:02:37.969Z,4.00
2018-07-11T06:03:37.900Z,4.00
2018-07-11T06:04:37.884Z,4.00
2018-07-11T06:05:37.870Z,4.00
2018-07-11T06:06:37.855Z,4.00
2018-07-11T06:07:37.845Z,4.00
2018-07-11T06:08:37.824Z,4.00
2018-07-11T06:09:37.809Z,4.00
2018-07-11T06:10:37.795Z,4.00
2018-07-11T06:11:37.777Z,4.00
2018-07-11T06:12:37.762Z,4.00
2018-07-11T06:13:37.968Z,4.00
2018-07-11T06:14:37.732Z,4.00
2018-07-11T06:15:37.718Z,4.00
2018-07-11T06:16:37.701Z,4.00
2018-07-11T06:17:37.686Z,4.00
2018-07-11T06:18:37.672Z,4.00
2018-07-11T06:19:37.657Z,4.00
2018-07-11T06:20:37.639Z,4.00
2018-07-11T06:21:37.626Z,4.00
2018-07-11T06:22:37.611Z,4.00
2018-07-11T06:23:37.600Z,4.00
2018-07-11T06:24:37.579Z,4.00
2018-07-11T06:25:37.565Z,4.00
2018-07-11T06:26:37.549Z,4.00
2018-07-11T06:27:37.537Z,4.00
2018-07-11T06:28:37.519Z,4.00
2018-07-11T06:29:37.503Z,4.00
2018-07-11T06:30:37.487Z,4.00
2018-07-11T06:31:37.475Z,4.00
2018-07-11T06:32:37.456Z,4.00
2018-07-11T06:33:37.444Z,4.00
2018-07-11T06:34:37.430Z,4.00
2018-07-11T06:35:37.410Z,4.00
2018-07-11T06:36:37.397Z,4.00
2018-07-11T06:37:37.381Z,4.00
2018-07-11T06:38:37.365Z,4.00
2018-07-11T06:39:37.349Z,4.00
2018-07-11T06:40:37.334Z,4.00
2018-07-11T06:41:37.324Z,4.00
2018-07-11T06:42:37.306Z,4.00
2018-07-11T06:43:37.289Z,4.00
2018-07-11T06:44:37.274Z,4.00
2018-07-11T06:45:37.259Z,4.00
2018-07-11T06:46:37.244Z,4.00
2018-07-11T06:47:37.227Z,4.00
2018-07-11T06:48:37.212Z,4.00
2018-07-11T06:49:37.197Z,4.00
2018-07-11T06:50:37.182Z,4.00
2018-07-11T06:51:37.166Z,4.00
2018-07-11T06:52:37.152Z,4.00
2018-07-11T06:53:37.137Z,4.00
2018-07-11T06:54:37.121Z,4.00
2018-07-11T06:55:37.106Z,4.00
2018-07-11T06:56:37.100Z,4.00
2018-07-11T06:57:37.091Z,4.00
2018-07-11T06:58:37.060Z,4.00
2018-07-11T06:59:37.043Z,4.00
2018-07-11T07:00:37.028Z,4.00
2018-07-11T07:01:37.014Z,4.00
2018-07-11T07:02:37.001Z,4.00
2018-07-11T07:03:37.022Z,4.00
2018-07-11T07:04:36.966Z,4.00
2018-07-11T07:05:36.952Z,4.00
2018-07-11T07:06:36.936Z,4.00
2018-07-11T07:07:36.920Z,4.00
2018-07-11T07:08:36.904Z,4.00
2018-07-11T07:09:36.890Z,4.00
2018-07-11T07:10:36.874Z,4.00
2018-07-11T07:11:36.889Z,4.00
2018-07-11T07:12:36.843Z,4.00
2018-07-11T07:13:36.978Z,4.00
2018-07-11T07:14:36.814Z,4.00
2018-07-11T07:15:36.801Z,4.00
2018-07-11T07:16:36.841Z,4.00
2018-07-11T07:17:36.767Z,4.00
2018-07-11T07:18:36.753Z,4.00
2018-07-11T07:19:36.735Z,4.00
2018-07-11T07:20:36.722Z,4.00
2018-07-11T07:21:36.705Z,4.00
2018-07-11T07:22:36.768Z,4.00
2018-07-11T07:23:36.673Z,4.00
2018-07-11T07:24:36.659Z,4.00
2018-07-11T07:25:36.644Z,4.00
2018-07-11T07:26:36.628Z,4.00
2018-07-11T07:27:36.612Z,4.00
2018-07-11T07:28:36.598Z,4.00
2018-07-11T07:29:36.582Z,4.00
2018-07-11T07:30:36.567Z,4.00
2018-07-11T07:31:36.551Z,4.00
2018-07-11T07:32:36.535Z,4.00
2018-07-11T07:33:36.520Z,4.00
2018-07-11T07:34:36.545Z,4.00
2018-07-11T07:35:36.490Z,4.00
2018-07-11T07:36:36.474Z,4.00
2018-07-11T07:37:36.460Z,4.00
2018-07-11T07:38:36.445Z,4.00
2018-07-11T07:39:36.428Z,4.00
2018-07-11T07:40:36.414Z,4.00
2018-07-11T07:41:36.399Z,4.00
2018-07-11T07:42:36.386Z,4.00
2018-07-11T07:43:36.368Z,4.00
2018-07-11T07:44:36.353Z,4.00
2018-07-11T07:45:36.338Z,4.00
2018-07-11T07:46:36.323Z,4.00
2018-07-11T07:47:36.307Z,4.00
2018-07-11T07:48:36.292Z,4.00
2018-07-11T07:49:36.277Z,4.00
2018-07-11T07:50:36.263Z,4.00
2018-07-11T07:51:36.247Z,4.00
2018-07-11T07:52:36.231Z,4.00
2018-07-11T07:53:36.216Z,4.00
2018-07-11T07:54:36.202Z,4.00
2018-07-11T07:55:36.186Z,4.00
2018-07-11T07:56:36.171Z,4.00
2018-07-11T07:57:36.155Z,4.00
2018-07-11T07:58:36.140Z,4.00
2018-07-11T07:59:36.125Z,4.00
2018-07-11T08:00:36.203Z,4.00
2018-07-11T08:01:36.095Z,4.00
2018-07-11T08:02:36.081Z,4.00
2018-07-11T08:03:36.063Z,4.00
2018-07-11T08:04:36.048Z,4.00
2018-07-11T08:05:36.033Z,4.00
2018-07-11T08:06:36.018Z,4.00
2018-07-11T08:07:36.002Z,4.00
2018-07-11T08:08:35.986Z,4.00
2018-07-11T08:09:35.972Z,4.00
2018-07-11T08:10:35.961Z,4.00
2018-07-11T08:11:35.941Z,4.00
2018-07-11T08:12:35.955Z,4.00
2018-07-11T08:13:35.911Z,4.00
2018-07-11T08:14:35.896Z,4.00
2018-07-11T08:15:35.882Z,4.00
2018-07-11T08:16:35.865Z,4.00
2018-07-11T08:17:35.850Z,4.00
2018-07-11T08:18:35.835Z,4.00
2018-07-11T08:19:35.819Z,4.00
2018-07-11T08:20:35.804Z,4.00
2018-07-11T08:21:35.789Z,4.00
2018-07-11T08:22:35.773Z,4.00
2018-07-11T08:23:35.758Z,4.00
2018-07-11T08:24:35.743Z,4.00
2018-07-11T08:25:35.728Z,4.00
2018-07-11T08:26:35.713Z,4.00
2018-07-11T08:27:35.697Z,4.00
2018-07-11T08:28:35.682Z,4.00
2018-07-11T08:29:35.667Z,4.00
2018-07-11T08:30:35.651Z,4.00
2018-07-11T08:31:35.637Z,4.00
2018-07-11T08:32:35.620Z,4.00
2018-07-11T08:33:35.605Z,4.00
2018-07-11T08:34:35.612Z,4.00
2018-07-11T08:35:35.575Z,4.00
2018-07-11T08:36:35.559Z,4.00
2018-07-11T08:37:35.545Z,4.00
2018-07-11T08:38:35.534Z,4.00
2018-07-11T08:39:35.514Z,4.00
2018-07-11T08:40:35.498Z,4.00
2018-07-11T08:41:35.484Z,4.00
2018-07-11T08:42:35.469Z,4.00
2018-07-11T08:43:35.653Z,4.00
2018-07-11T08:44:35.438Z,4.00
2018-07-11T08:45:35.423Z,4.00
2018-07-11T08:46:35.407Z,4.00
2018-07-11T08:47:35.442Z,4.00
2018-07-11T08:48:35.379Z,4.00
2018-07-11T08:49:35.362Z,4.00
2018-07-11T08:50:35.347Z,4.00
2018-07-11T08:51:35.331Z,4.00
2018-07-11T08:52:35.315Z,4.00
2018-07-11T08:53:35.302Z,4.00
2018-07-11T08:54:35.285Z,4.00
2018-07-11T08:55:35.271Z,4.00
2018-07-11T08:56:35.255Z,4.00
2018-07-11T08:57:35.240Z,4.00
2018-07-11T08:58:35.224Z,4.00
2018-07-11T08:59:35.210Z,4.00
2018-07-11T09:00:35.193Z,4.00
2018-07-11T09:01:35.178Z,4.00
2018-07-11T09:02:35.164Z,4.00
2018-07-11T09:03:35.147Z,4.00
2018-07-11T09:04:35.133Z,4.00
2018-07-11T09:05:35.118Z,4.00
2018-07-11T09:06:35.102Z,4.00
2018-07-11T09:07:35.085Z,4.00
2018-07-11T09:08:35.070Z,4.00
2018-07-11T09:09:35.056Z,4.00
2018-07-11T09:10:35.127Z,4.00
2018-07-11T09:11:35.025Z,4.00
2018-07-11T09:12:35.010Z,4.00
2018-07-11T09:13:35.144Z,4.00
2018-07-11T09:14:34.979Z,4.00
2018-07-11T09:15:34.964Z,4.00
2018-07-11T09:16:34.948Z,4.00
2018-07-11T09:17:34.933Z,4.00
2018-07-11T09:18:34.919Z,8.00
2018-07-11T09:19:35.104Z,4.00
2018-07-11T09:20:34.888Z,4.00
2018-07-11T09:21:34.874Z,4.00
2018-07-11T09:22:34.862Z,4.00
2018-07-11T09:23:34.842Z,4.00
2018-07-11T09:24:34.827Z,4.00
2018-07-11T09:25:34.812Z,4.00
2018-07-11T09:26:34.798Z,4.00
2018-07-11T09:27:34.781Z,8.00
2018-07-11T09:28:34.766Z,4.00
2018-07-11T09:29:34.751Z,4.00
2018-07-11T09:30:34.796Z,8.00
2018-07-11T09:31:34.721Z,8.00
2018-07-11T09:32:34.708Z,8.00
2018-07-11T09:33:34.691Z,8.00
2018-07-11T09:34:34.676Z,8.00
2018-07-11T09:35:34.660Z,8.00
2018-07-11T09:36:34.645Z,8.00
2018-07-11T09:37:34.675Z,8.00
2018-07-11T09:38:34.616Z,8.00
2018-07-11T09:39:34.600Z,8.00
2018-07-11T09:40:34.585Z,8.00
2018-07-11T09:41:34.570Z,8.00
2018-07-11T09:42:34.555Z,8.00
2018-07-11T09:43:34.540Z,8.00
2018-07-11T09:44:34.523Z,8.00
2018-07-11T09:45:34.572Z,12.00
2018-07-11T09:46:34.494Z,8.00
2018-07-11T09:47:34.478Z,12.00
2018-07-11T09:48:34.462Z,12.00
2018-07-11T09:49:34.449Z,12.00
2018-07-11T09:50:34.433Z,12.00
2018-07-11T09:51:34.416Z,12.00
2018-07-11T09:52:34.401Z,12.00
2018-07-11T09:53:34.387Z,16.00
2018-07-11T09:54:34.372Z,12.00
2018-07-11T09:55:34.356Z,12.00
2018-07-11T09:56:34.341Z,12.00
2018-07-11T09:57:34.327Z,12.00
2018-07-11T09:58:34.311Z,12.00
2018-07-11T09:59:34.295Z,12.00
2018-07-11T10:00:34.281Z,8.00
2018-07-11T10:01:34.265Z,12.00
2018-07-11T10:02:34.250Z,12.00
2018-07-11T10:03:34.234Z,12.00
2018-07-11T10:04:34.219Z,16.00
2018-07-11T10:05:34.207Z,12.00
2018-07-11T10:06:34.191Z,8.00
2018-07-11T10:07:34.173Z,12.00
2018-07-11T10:08:34.160Z,16.00
2018-07-11T10:09:34.143Z,20.00
2018-07-11T10:10:34.131Z,20.00
2018-07-11T10:11:34.112Z,20.00
2018-07-11T10:12:34.129Z,20.00
2018-07-11T10:13:34.232Z,24.00
2018-07-11T10:14:34.068Z,24.00
2018-07-11T10:15:34.052Z,24.00
2018-07-11T10:16:34.037Z,20.00
2018-07-11T10:17:34.022Z,20.00
2018-07-11T10:18:34.007Z,28.00
2018-07-11T10:19:33.991Z,28.00
2018-07-11T10:20:33.976Z,32.00
2018-07-11T10:21:34.014Z,32.00
2018-07-11T10:22:33.946Z,40.00
2018-07-11T10:23:33.930Z,40.00
2018-07-11T10:24:33.915Z,40.00
2018-07-11T10:25:33.903Z,44.00
2018-07-11T10:26:33.890Z,40.00
2018-07-11T10:27:33.870Z,44.00
2018-07-11T10:28:33.856Z,48.00
2018-07-11T10:29:33.841Z,48.00
2018-07-11T10:30:33.825Z,40.00
2018-07-11T10:31:33.809Z,40.00
2018-07-11T10:32:33.794Z,44.00
2018-07-11T10:33:33.823Z,40.00
2018-07-11T10:34:33.766Z,44.00
2018-07-11T10:35:33.750Z,48.00
2018-07-11T10:36:33.735Z,56.00
2018-07-11T10:37:33.719Z,60.00
2018-07-11T10:38:33.705Z,68.00
2018-07-11T10:39:33.695Z,64.00
2018-07-11T10:40:33.677Z,52.00
2018-07-11T10:41:33.659Z,48.00
2018-07-11T10:42:33.644Z,52.00
2018-07-11T10:43:33.628Z,52.00
2018-07-11T10:44:33.620Z,52.00
2018-07-11T10:45:33.603Z,56.00
2018-07-11T10:46:33.584Z,60.00
2018-07-11T10:47:33.568Z,72.00
2018-07-11T10:48:33.553Z,72.00
2018-07-11T10:49:33.539Z,80.00
2018-07-11T10:50:33.594Z,88.00
2018-07-11T10:51:33.510Z,84.00
2018-07-11T10:52:33.493Z,76.00
2018-07-11T10:53:33.480Z,80.00
2018-07-11T10:54:33.464Z,92.00
2018-07-11T10:55:33.449Z,108.00
2018-07-11T10:56:33.434Z,116.00
2018-07-11T10:57:33.430Z,132.00
2018-07-11T10:58:33.407Z,136.00
2018-07-11T10:59:33.388Z,160.00
2018-07-11T11:00:36.664Z,172.00
2018-07-11T11:01:33.374Z,164.00
2018-07-11T11:02:33.345Z,172.00
2018-07-11T11:03:33.331Z,208.00
2018-07-11T11:04:33.317Z,212.00
2018-07-11T11:05:33.304Z,196.00
2018-07-11T11:06:33.287Z,192.00
2018-07-11T11:07:33.272Z,220.00
2018-07-11T11:08:33.257Z,256.00
2018-07-11T11:09:33.240Z,284.00
2018-07-11T11:10:33.227Z,308.00
2018-07-11T11:11:33.228Z,316.00
2018-07-11T11:12:33.197Z,300.00
2018-07-11T11:13:33.333Z,348.00
2018-07-11T11:14:33.222Z,352.00
2018-07-11T11:15:33.151Z,336.00
2018-07-11T11:16:33.138Z,416.00
2018-07-11T11:17:33.124Z,428.00
2018-07-11T11:18:33.108Z,412.00
2018-07-11T11:19:33.093Z,372.00
2018-07-11T11:20:33.100Z,320.00
2018-07-11T11:21:33.066Z,284.00
2018-07-11T11:22:33.049Z,268.00
2018-07-11T11:23:33.034Z,264.00
2018-07-11T11:24:33.020Z,252.00
2018-07-11T11:25:33.007Z,212.00
2018-07-11T11:26:32.993Z,212.00
2018-07-11T11:27:32.976Z,220.00
2018-07-11T11:28:32.963Z,208.00
2018-07-11T11:29:32.951Z,208.00
2018-07-11T11:30:32.934Z,200.00
2018-07-11T11:31:32.919Z,188.00
2018-07-11T11:32:32.904Z,196.00
2018-07-11T11:33:32.891Z,204.00
2018-07-11T11:34:32.875Z,192.00
2018-07-11T11:35:32.870Z,176.00
2018-07-11T11:36:32.854Z,168.00
2018-07-11T11:37:32.833Z,168.00
2018-07-11T11:38:32.817Z,176.00
2018-07-11T11:39:32.805Z,188.00
2018-07-11T11:40:32.791Z,224.00
2018-07-11T11:41:32.867Z,288.00
2018-07-11T11:42:33.036Z,288.00
2018-07-11T11:43:32.895Z,232.00
2018-07-11T11:44:32.732Z,188.00
2018-07-11T11:45:32.718Z,176.00
2018-07-11T11:46:32.706Z,204.00
2018-07-11T11:47:32.689Z,192.00
2018-07-11T11:48:32.675Z,180.00
2018-07-11T11:49:32.662Z,196.00
2018-07-11T11:50:32.648Z,212.00
2018-07-11T11:51:32.631Z,220.00
2018-07-11T11:52:32.617Z,220.00
2018-07-11T11:53:32.607Z,236.00
2018-07-11T11:54:32.589Z,260.00
2018-07-11T11:55:32.573Z,324.00
2018-07-11T11:56:32.560Z,436.00
2018-07-11T11:57:32.546Z,404.00
2018-07-11T11:58:32.538Z,356.00
2018-07-11T11:59:32.516Z,332.00
2018-07-11T12:00:32.502Z,324.00
2018-07-11T12:01:32.493Z,340.00
2018-07-11T12:02:32.476Z,344.00
2018-07-11T12:03:32.460Z,340.00
2018-07-11T12:04:32.445Z,604.00
2018-07-11T12:05:32.430Z,372.00
2018-07-11T12:06:32.416Z,372.00
2018-07-11T12:07:32.401Z,380.00
2018-07-11T12:08:32.387Z,364.00
2018-07-11T12:09:32.373Z,336.00
2018-07-11T12:10:32.358Z,344.00
2018-07-11T12:11:32.342Z,376.00
2018-07-11T12:12:32.331Z,380.00
2018-07-11T12:13:32.317Z,356.00
2018-07-11T12:14:32.303Z,344.00
2018-07-11T12:15:32.285Z,332.00
2018-07-11T12:16:32.273Z,336.00
2018-07-11T12:17:32.268Z,364.00
2018-07-11T12:18:32.255Z,388.00
2018-07-11T12:19:32.228Z,392.00
2018-07-11T12:20:32.238Z,400.00
2018-07-11T12:21:32.306Z,444.00
2018-07-11T12:22:32.201Z,472.00
2018-07-11T12:23:32.190Z,484.00
2018-07-11T12:24:32.180Z,460.00
2018-07-11T12:25:32.145Z,464.00
2018-07-11T12:26:32.139Z,472.00
2018-07-11T12:27:32.130Z,444.00
2018-07-11T12:28:32.112Z,400.00
2018-07-11T12:29:32.104Z,364.00
2018-07-11T12:30:32.072Z,348.00
2018-07-11T12:31:32.058Z,348.00
2018-07-11T12:32:32.044Z,340.00
2018-07-11T12:33:32.050Z,348.00
2018-07-11T12:34:32.018Z,328.00
2018-07-11T12:35:32.004Z,276.00
2018-07-11T12:36:31.987Z,228.00
2018-07-11T12:37:31.975Z,212.00
2018-07-11T12:38:31.972Z,212.00
2018-07-11T12:39:31.944Z,212.00
2018-07-11T12:40:31.932Z,228.00
2018-07-11T12:41:31.923Z,248.00
2018-07-11T12:42:31.913Z,252.00
2018-07-11T12:43:32.129Z,240.00
2018-07-11T12:44:31.892Z,240.00
2018-07-11T12:45:31.874Z,248.00
2018-07-11T12:46:31.846Z,276.00
2018-07-11T12:47:31.831Z,324.00
2018-07-11T12:48:31.816Z,360.00
2018-07-11T12:49:31.806Z,364.00
2018-07-11T12:50:31.789Z,352.00
2018-07-11T12:51:31.774Z,340.00
2018-07-11T12:52:31.760Z,328.00
2018-07-11T12:53:31.746Z,320.00
2018-07-11T12:54:31.734Z,324.00
2018-07-11T12:55:31.717Z,324.00
2018-07-11T12:56:31.704Z,336.00
2018-07-11T12:57:31.690Z,396.00
2018-07-11T12:58:31.694Z,456.00
2018-07-11T12:59:31.662Z,472.00
2018-07-11T13:00:31.647Z,464.00
2018-07-11T13:01:31.633Z,444.00
2018-07-11T13:02:31.619Z,428.00
2018-07-11T13:03:31.605Z,420.00
2018-07-11T13:04:31.592Z,428.00
2018-07-11T13:05:31.579Z,432.00
2018-07-11T13:06:31.566Z,440.00
2018-07-11T13:07:31.549Z,456.00